Atlantic City, NJ (08401)

8:03 AM EST on January 17, 2017 (GMT -0500)
Seaside Road Beach | | Change Station

Elev 20 ft 39.38 °N, 74.40 °W | Updated 12 seconds ago

Overcast
Overcast
40.3 °F
Feels Like 40 °F
N
0.0
Wind Variable Wind from SSE
Gusts 0.0 mph

Today
High -- | Low -- °F
--% Chance of Precip.
Yesterday
High -- | Low -- °F
Precip. -- in
Pressure 30.24 in
Visibility 6.0 miles
Clouds Mostly Cloudy 1500 ft
Overcast 2800 ft
Windchill 40 °F
Dew Point 37 °F
Humidity 87%
Rainfall 0.05 in
Snow Depth Not available.
7:15 AM 5:01 PM
Waning Gibbous, 72% visible
METAR KACY 171254Z 00000KT 6SM BR BKN015 OVC028 03/02 A3023 RMK AO2 SLP238 T00330017
Pressure 30.24 in
Visibility 6.0 miles
Clouds Mostly Cloudy 1500 ft
Overcast 2800 ft
Windchill 40 °F
Dew Point 37 °F
Humidity 87%
Rainfall 0.05 in
Snow Depth Not available.
7:15 AM 5:01 PM
Waning Gibbous, 72% visible
METAR KACY 171254Z 00000KT 6SM BR BKN015 OVC028 03/02 A3023 RMK AO2 SLP238 T00330017

Get Your Daily Forecast Email!

Thanks for signing up!

Be on the lookout for a verification email in your inbox.

You'll start receiving the daily forecast at 8 AM.

×

10-Day Weather Forecast

Almanac

Astronomy

Jan. 17, 2017 Rise Set
Actual Time
Civil Twilight
Nautical Twilight
Astronomical Twilight
Moon
Length of Visible Light
Length of Day
Tomorrow will be .
, % of the Moon is Illuminated

Today's Extremes

State Highs State Lows

Community

WunderPhotos

Upload Photos

1,962,540 photos uploaded!

WunderBlog® & News

Nearby

Air Quality

  Air Quality AQ Index Pollutant
Not available.

Snow Depth

Station Depth Elevation

Earthquake Activity

City Distance Mag. Time & Date
Minimum magnitude displayed is 2.5.

Coastal Water Temperatures

Place Temperature

Stations

Nearby Weather Stations

Station Location Temp. Windchill Dew Point Humidity Wind Precip. Elev Updated Type
                   

Watches & Warnings

There are currently no watches in effect.